createdAt,value
2022-10-25T00:01:48.412Z,29.07
2022-10-25T00:06:49.663Z,29.07
2022-10-25T00:09:20.207Z,29.13
2022-10-25T00:11:50.823Z,29.13
2022-10-25T00:14:21.661Z,29.16
2022-10-25T00:17:07.623Z,29.07
2022-10-25T00:19:38.027Z,29.22
2022-10-25T00:22:08.361Z,29.23
2022-10-25T00:24:38.784Z,29.23
2022-10-25T00:27:09.246Z,29.26
2022-10-25T00:29:39.676Z,29.24
2022-10-25T00:32:10.085Z,29.31
2022-10-25T00:34:43.106Z,29.32
2022-10-25T00:37:13.552Z,29.31
2022-10-25T00:39:44.106Z,29.26
2022-10-25T00:42:26.103Z,28.90
2022-10-25T00:45:02.860Z,29.30
2022-10-25T00:47:47.807Z,28.95
2022-10-25T00:50:21.279Z,29.38
2022-10-25T00:52:55.788Z,29.22
2022-10-25T00:55:28.808Z,29.50
2022-10-25T00:58:06.607Z,29.51
2022-10-25T01:00:55.471Z,28.98
2022-10-25T01:03:27.035Z,29.58
2022-10-25T01:06:01.033Z,29.45
2022-10-25T01:08:31.758Z,29.63
2022-10-25T01:11:02.251Z,29.64
2022-10-25T01:13:32.639Z,29.66
2022-10-25T01:16:07.129Z,29.60
2022-10-25T01:19:08.144Z,29.57
2022-10-25T01:21:53.877Z,29.53
2022-10-25T01:24:42.392Z,29.60
2022-10-25T01:27:32.394Z,29.69
2022-10-25T01:30:33.660Z,29.73
2022-10-25T01:33:20.764Z,29.71
2022-10-25T01:36:11.287Z,29.80
2022-10-25T01:38:45.594Z,29.81
2022-10-25T01:41:58.467Z,29.30
2022-10-25T01:45:07.795Z,29.71
2022-10-25T01:47:54.029Z,29.76
2022-10-25T01:50:29.250Z,29.84
2022-10-25T01:52:59.721Z,29.83
2022-10-25T01:55:36.598Z,29.48
2022-10-25T01:58:18.584Z,29.96
2022-10-25T02:01:04.064Z,29.75
2022-10-25T02:03:38.141Z,30.00
2022-10-25T02:06:08.713Z,30.02
2022-10-25T02:08:47.454Z,30.03
2022-10-25T02:11:17.752Z,30.05
2022-10-25T02:14:17.884Z,30.03
2022-10-25T02:17:09.766Z,29.97
2022-10-25T02:19:46.898Z,29.91
2022-10-25T02:22:19.194Z,30.13
2022-10-25T02:24:52.865Z,29.63
2022-10-25T02:27:24.569Z,30.18
2022-10-25T02:29:56.416Z,30.21
2022-10-25T02:32:27.002Z,30.21
2022-10-25T02:34:57.559Z,30.25
2022-10-25T02:37:27.968Z,30.27
2022-10-25T02:39:58.499Z,30.30
2022-10-25T02:42:29.162Z,30.32
2022-10-25T02:44:59.601Z,30.34
2022-10-25T02:47:30.005Z,30.36
2022-10-25T02:50:00.456Z,30.37
2022-10-25T02:52:30.858Z,30.42
2022-10-25T02:55:01.275Z,30.44
2022-10-25T02:57:39.431Z,30.44
2022-10-25T03:00:10.569Z,30.48
2022-10-25T03:02:40.972Z,30.46
2022-10-25T03:05:11.690Z,30.55
2022-10-25T03:07:42.372Z,30.47
2022-10-25T03:10:13.840Z,30.60
2022-10-25T03:12:44.359Z,30.61
2022-10-25T03:15:15.007Z,30.63
2022-10-25T03:17:45.642Z,30.67
2022-10-25T03:20:16.427Z,30.69
2022-10-25T03:22:47.492Z,30.69
2022-10-25T03:25:18.235Z,30.73
2022-10-25T03:27:48.959Z,30.72
2022-10-25T03:30:20.474Z,30.77
2022-10-25T03:32:50.808Z,30.81
2022-10-25T03:35:22.087Z,30.75
2022-10-25T03:37:53.529Z,30.88
2022-10-25T03:40:24.347Z,30.75
2022-10-25T03:42:54.822Z,30.92
2022-10-25T03:45:25.741Z,30.93
2022-10-25T03:47:56.598Z,30.91
2022-10-25T03:50:28.088Z,30.97
2022-10-25T03:52:59.032Z,31.00
2022-10-25T03:55:33.841Z,30.92
2022-10-25T03:58:05.201Z,31.05
2022-10-25T04:00:36.104Z,31.06
2022-10-25T04:05:44.629Z,31.11
2022-10-25T04:08:25.970Z,31.09
2022-10-25T04:10:56.828Z,31.13
2022-10-25T04:13:27.916Z,31.07
2022-10-25T04:15:59.031Z,30.84
2022-10-25T04:18:29.932Z,31.16
2022-10-25T04:21:01.206Z,31.20
2022-10-25T04:23:32.915Z,31.25
2022-10-25T04:26:04.029Z,31.27
2022-10-25T04:28:34.974Z,31.15
2022-10-25T04:31:05.759Z,31.27
2022-10-25T04:33:36.672Z,31.27
2022-10-25T04:36:08.032Z,30.96
2022-10-25T04:38:38.980Z,31.33
2022-10-25T04:41:11.279Z,31.35
2022-10-25T04:43:42.159Z,31.36
2022-10-25T04:46:13.032Z,31.41
2022-10-25T04:48:44.917Z,31.42
2022-10-25T04:51:16.773Z,31.43
2022-10-25T04:53:56.071Z,31.07
2022-10-25T04:56:27.278Z,31.42
2022-10-25T04:58:58.269Z,31.45
2022-10-25T05:01:29.311Z,31.46
2022-10-25T05:04:00.403Z,31.49
2022-10-25T05:06:31.703Z,31.14
2022-10-25T05:09:10.288Z,31.46
2022-10-25T05:11:42.388Z,31.54
2022-10-25T05:14:13.464Z,31.48
2022-10-25T05:16:44.718Z,31.57
2022-10-25T05:19:15.471Z,31.50
2022-10-25T05:21:46.725Z,31.63
2022-10-25T05:24:18.030Z,31.62
2022-10-25T05:26:48.866Z,31.65
2022-10-25T05:29:19.729Z,31.56
2022-10-25T05:31:51.016Z,31.57
2022-10-25T05:34:21.854Z,31.66
2022-10-25T05:36:52.854Z,31.59
2022-10-25T05:39:23.903Z,31.67
2022-10-25T05:41:54.927Z,31.64
2022-10-25T05:44:25.788Z,31.68
2022-10-25T05:46:57.319Z,31.64
2022-10-25T05:49:28.151Z,31.71
2022-10-25T05:51:59.367Z,31.37
2022-10-25T05:54:30.218Z,31.63
2022-10-25T05:57:00.975Z,31.72
2022-10-25T05:59:31.896Z,31.77
2022-10-25T06:02:03.064Z,31.76
2022-10-25T06:04:33.972Z,31.76
2022-10-25T06:07:04.870Z,31.78
2022-10-25T06:09:55.640Z,31.79
2022-10-25T06:12:26.475Z,31.78
2022-10-25T06:14:57.301Z,31.86
2022-10-25T06:17:28.114Z,31.87
2022-10-25T06:19:58.885Z,31.89
2022-10-25T06:22:29.647Z,31.89
2022-10-25T06:25:00.564Z,31.89
2022-10-25T06:27:31.632Z,31.80
2022-10-25T06:30:06.037Z,31.93
2022-10-25T06:32:39.536Z,31.97
2022-10-25T06:35:10.702Z,31.99
2022-10-25T06:37:41.514Z,31.99
2022-10-25T06:40:12.827Z,32.03
2022-10-25T06:42:44.355Z,32.01
2022-10-25T06:45:15.460Z,32.03
2022-10-25T06:47:48.083Z,31.16
2022-10-25T06:50:18.980Z,32.11
2022-10-25T06:52:49.965Z,32.08
2022-10-25T06:55:20.956Z,32.10
2022-10-25T06:57:51.813Z,32.02
2022-10-25T07:00:22.870Z,32.17
2022-10-25T07:03:01.450Z,32.19
2022-10-25T07:05:32.654Z,32.20
2022-10-25T07:08:04.068Z,32.24
2022-10-25T07:10:35.034Z,32.29
2022-10-25T07:13:06.080Z,32.25
2022-10-25T07:15:38.686Z,32.28
2022-10-25T07:18:11.715Z,32.30
2022-10-25T07:20:42.397Z,32.31
2022-10-25T07:23:12.823Z,32.33
2022-10-25T07:25:43.651Z,32.35
2022-10-25T07:28:14.455Z,32.36
2022-10-25T07:30:49.104Z,32.35
2022-10-25T07:33:21.983Z,31.82
2022-10-25T07:36:05.903Z,32.39
2022-10-25T07:38:37.012Z,32.37
2022-10-25T07:41:08.398Z,32.35
2022-10-25T07:43:38.968Z,32.39
2022-10-25T07:46:09.648Z,32.42
2022-10-25T07:48:40.410Z,32.41
2022-10-25T07:51:16.621Z,32.42
2022-10-25T07:53:47.294Z,32.38
2022-10-25T07:56:23.418Z,31.91
2022-10-25T07:58:54.570Z,32.44
2022-10-25T08:01:28.284Z,32.48
2022-10-25T08:03:58.722Z,32.47
2022-10-25T08:06:29.763Z,32.49
2022-10-25T08:09:05.566Z,32.52
2022-10-25T08:11:45.100Z,32.52
2022-10-25T08:14:16.443Z,32.56
2022-10-25T08:16:47.421Z,32.55
2022-10-25T08:19:18.557Z,32.56
2022-10-25T08:21:49.876Z,32.57
2022-10-25T08:27:00.228Z,32.58
2022-10-25T08:29:33.569Z,32.59
2022-10-25T08:32:05.026Z,32.58
2022-10-25T08:34:36.603Z,32.57
2022-10-25T08:37:07.876Z,32.59
2022-10-25T08:39:40.816Z,32.60
2022-10-25T08:42:36.350Z,32.59
2022-10-25T08:45:17.201Z,32.57
2022-10-25T08:47:49.912Z,32.63
2022-10-25T08:50:30.892Z,32.44
2022-10-25T08:53:05.953Z,32.51
2022-10-25T08:58:40.322Z,32.66
2022-10-25T09:01:22.688Z,32.53
2022-10-25T09:03:53.759Z,32.69
2022-10-25T09:06:34.852Z,32.28
2022-10-25T09:09:28.620Z,32.69
2022-10-25T09:12:16.759Z,32.60
2022-10-25T09:15:41.987Z,32.61
2022-10-25T09:18:19.659Z,32.69
2022-10-25T09:20:54.733Z,32.47
2022-10-25T09:23:32.286Z,32.26
2022-10-25T09:26:09.126Z,32.14
2022-10-25T09:28:57.332Z,32.05
2022-10-25T09:31:28.245Z,31.96
2022-10-25T09:34:04.699Z,31.95
2022-10-25T09:36:58.411Z,31.92
2022-10-25T09:39:45.954Z,31.39
2022-10-25T09:42:26.780Z,31.55
2022-10-25T09:45:05.056Z,31.39
2022-10-25T09:48:10.518Z,31.80
2022-10-25T09:51:14.683Z,31.73
2022-10-25T09:53:48.209Z,31.26
2022-10-25T09:56:19.325Z,31.51
2022-10-25T09:58:50.485Z,31.71
2022-10-25T10:01:29.045Z,30.82
2022-10-25T10:04:17.240Z,31.59
2022-10-25T10:06:50.747Z,31.70
2022-10-25T10:09:23.277Z,31.74
2022-10-25T10:11:55.981Z,31.71
2022-10-25T10:14:43.078Z,31.12
2022-10-25T10:17:19.160Z,31.25
2022-10-25T10:20:18.914Z,31.69
2022-10-25T10:22:57.735Z,31.75
2022-10-25T10:25:30.581Z,31.35
2022-10-25T10:28:01.469Z,31.71
2022-10-25T10:30:33.669Z,31.78
2022-10-25T10:33:06.134Z,31.77
2022-10-25T10:35:38.959Z,31.74
2022-10-25T10:38:34.827Z,31.75
2022-10-25T10:41:29.417Z,31.57
2022-10-25T10:44:14.149Z,31.27
2022-10-25T10:46:50.884Z,31.63
2022-10-25T10:49:27.658Z,31.86
2022-10-25T10:51:58.547Z,32.09
2022-10-25T10:54:32.810Z,32.01
2022-10-25T10:57:06.714Z,32.21
2022-10-25T10:59:47.629Z,32.24
2022-10-25T11:02:37.141Z,32.24
2022-10-25T11:05:29.275Z,32.10
2022-10-25T11:08:20.793Z,32.19
2022-10-25T11:10:51.607Z,32.32
2022-10-25T11:13:25.196Z,32.33
2022-10-25T11:16:24.347Z,32.34
2022-10-25T11:19:19.901Z,32.27
2022-10-25T11:22:07.736Z,31.78
2022-10-25T11:25:19.401Z,32.26
2022-10-25T11:28:15.841Z,31.51
2022-10-25T11:31:02.362Z,31.40
2022-10-25T11:33:43.542Z,32.30
2022-10-25T11:36:37.723Z,32.26
2022-10-25T11:39:30.217Z,32.35
2022-10-25T11:42:13.410Z,31.90
2022-10-25T11:45:05.070Z,32.32
2022-10-25T11:47:59.726Z,32.28
2022-10-25T11:50:50.993Z,31.79
2022-10-25T11:53:36.918Z,32.24
2022-10-25T11:56:11.990Z,32.24
2022-10-25T11:58:54.850Z,32.16
2022-10-25T12:01:54.994Z,32.11
2022-10-25T12:04:54.920Z,32.02
2022-10-25T12:07:57.520Z,31.64
2022-10-25T12:10:56.474Z,32.08
2022-10-25T12:13:33.575Z,31.64
2022-10-25T12:16:07.167Z,32.15
2022-10-25T12:18:42.432Z,31.60
2022-10-25T12:21:32.406Z,31.54
2022-10-25T12:24:08.819Z,32.04
2022-10-25T12:26:43.578Z,32.00
2022-10-25T12:29:26.361Z,31.48
2022-10-25T12:32:04.156Z,31.46
2022-10-25T12:34:42.773Z,31.44
2022-10-25T12:37:42.496Z,31.36
2022-10-25T12:40:20.855Z,31.38
2022-10-25T12:43:00.008Z,31.89
2022-10-25T12:45:48.535Z,30.71
2022-10-25T12:48:53.917Z,30.95
2022-10-25T12:51:39.542Z,31.26
2022-10-25T12:54:30.124Z,31.24
2022-10-25T12:57:30.289Z,31.14
2022-10-25T13:03:13.417Z,31.23
2022-10-25T13:06:02.087Z,31.21
2022-10-25T13:08:35.179Z,31.12
2022-10-25T13:11:13.574Z,31.03
2022-10-25T13:13:57.721Z,31.10
2022-10-25T13:16:36.026Z,31.09
2022-10-25T13:19:57.735Z,31.05
2022-10-25T13:22:39.867Z,30.44
2022-10-25T13:25:16.271Z,31.06
2022-10-25T13:28:18.014Z,30.94
2022-10-25T13:31:15.867Z,30.97
2022-10-25T13:34:06.652Z,30.95
2022-10-25T13:37:10.114Z,30.39
2022-10-25T13:39:48.334Z,30.60
2022-10-25T13:42:43.346Z,30.93
2022-10-25T13:45:36.815Z,30.39
2022-10-25T13:48:33.490Z,30.89
2022-10-25T13:51:19.855Z,30.92
2022-10-25T13:54:13.151Z,30.72
2022-10-25T13:56:56.343Z,30.57
2022-10-25T14:03:05.346Z,30.48
2022-10-25T14:05:57.836Z,30.39
2022-10-25T14:08:43.176Z,30.43
2022-10-25T14:11:38.652Z,30.36
2022-10-25T14:14:46.742Z,30.31
2022-10-25T14:17:36.063Z,30.18
2022-10-25T14:20:32.618Z,30.23
2022-10-25T14:23:16.217Z,30.21
2022-10-25T14:26:04.086Z,30.13
2022-10-25T14:28:43.117Z,30.13
2022-10-25T14:31:24.735Z,30.20
2022-10-25T14:33:57.955Z,30.17
2022-10-25T14:36:51.872Z,29.98
2022-10-25T14:39:32.218Z,30.02
2022-10-25T14:42:14.583Z,30.21
2022-10-25T14:44:51.086Z,29.22
2022-10-25T14:47:31.303Z,30.14
2022-10-25T14:52:41.555Z,30.10
2022-10-25T14:55:34.563Z,30.00
2022-10-25T14:58:32.323Z,30.04
2022-10-25T15:01:06.471Z,29.40
2022-10-25T15:03:45.176Z,30.00
2022-10-25T15:06:18.067Z,30.01
2022-10-25T15:08:52.325Z,29.94
2022-10-25T15:11:27.856Z,29.60
2022-10-25T15:14:00.655Z,29.82
2022-10-25T15:16:42.684Z,29.84
2022-10-25T15:19:19.217Z,29.79
2022-10-25T15:21:54.340Z,29.77
2022-10-25T15:24:29.056Z,29.33
2022-10-25T15:27:04.888Z,29.09
2022-10-25T15:32:25.208Z,29.40
2022-10-25T15:35:07.565Z,29.51
2022-10-25T15:37:42.912Z,29.64
2022-10-25T15:40:18.452Z,29.77
2022-10-25T15:42:50.128Z,29.84
2022-10-25T15:45:21.122Z,29.52
2022-10-25T15:47:53.105Z,29.79
2022-10-25T15:50:29.731Z,29.92
2022-10-25T15:53:02.372Z,29.90
2022-10-25T15:55:34.611Z,29.91
2022-10-25T15:58:09.710Z,29.91
2022-10-25T16:00:45.740Z,29.93
2022-10-25T16:03:27.308Z,29.86
2022-10-25T16:05:58.267Z,29.79
2022-10-25T16:08:29.786Z,29.78
2022-10-25T16:11:01.170Z,29.87
2022-10-25T16:13:38.840Z,29.43
2022-10-25T16:16:38.443Z,29.73
2022-10-25T16:19:07.218Z,29.66
2022-10-25T16:21:38.138Z,29.81
2022-10-25T16:24:09.216Z,29.43
2022-10-25T16:26:44.505Z,29.80
2022-10-25T16:29:23.865Z,29.78
2022-10-25T16:31:55.648Z,29.67
2022-10-25T16:34:26.873Z,29.74
2022-10-25T16:36:57.797Z,29.34
2022-10-25T16:39:29.016Z,29.72
2022-10-25T16:41:59.959Z,29.67
2022-10-25T16:44:30.823Z,29.71
2022-10-25T16:47:01.780Z,29.65
2022-10-25T16:49:34.417Z,29.62
2022-10-25T16:52:07.573Z,29.63
2022-10-25T16:54:38.464Z,29.60
2022-10-25T16:57:09.482Z,29.62
2022-10-25T16:59:40.653Z,29.61
2022-10-25T17:02:30.291Z,28.94
2022-10-25T17:05:02.013Z,29.56
2022-10-25T17:07:33.040Z,29.55
2022-10-25T17:10:03.988Z,29.55
2022-10-25T17:12:35.027Z,29.53
2022-10-25T17:15:06.715Z,29.52
2022-10-25T17:17:37.614Z,29.50
2022-10-25T17:20:10.303Z,29.51
2022-10-25T17:22:42.003Z,29.50
2022-10-25T17:25:13.656Z,29.45
2022-10-25T17:27:49.165Z,29.43
2022-10-25T17:30:20.575Z,29.42
2022-10-25T17:32:52.303Z,29.39
2022-10-25T17:35:29.812Z,29.40
2022-10-25T17:38:01.131Z,29.39
2022-10-25T17:40:32.351Z,29.35
2022-10-25T17:43:03.163Z,29.36
2022-10-25T17:45:34.736Z,29.34
2022-10-25T17:48:06.347Z,29.31
2022-10-25T17:50:42.358Z,29.29
2022-10-25T17:53:16.258Z,29.29
2022-10-25T17:55:47.157Z,29.09
2022-10-25T17:58:18.051Z,28.89
2022-10-25T18:00:49.769Z,29.20
2022-10-25T18:03:20.878Z,29.25
2022-10-25T18:05:52.431Z,29.20
2022-10-25T18:08:23.328Z,29.23
2022-10-25T18:10:54.154Z,29.22
2022-10-25T18:13:26.510Z,29.20
2022-10-25T18:16:02.672Z,29.19
2022-10-25T18:18:33.947Z,29.06
2022-10-25T18:21:11.658Z,29.17
2022-10-25T18:23:43.323Z,29.17
2022-10-25T18:26:15.461Z,28.99
2022-10-25T18:28:46.721Z,29.08
2022-10-25T18:31:17.599Z,29.04
2022-10-25T18:33:51.530Z,29.13
2022-10-25T18:36:23.323Z,29.05
2022-10-25T18:38:55.976Z,29.10
2022-10-25T18:41:28.353Z,28.72
2022-10-25T18:44:00.100Z,28.96
2022-10-25T18:46:33.500Z,29.00
2022-10-25T18:49:04.647Z,29.05
2022-10-25T18:51:35.825Z,29.05
2022-10-25T18:54:07.597Z,28.78
2022-10-25T18:56:38.481Z,28.91
2022-10-25T18:59:12.042Z,29.03
2022-10-25T19:01:43.206Z,28.99
2022-10-25T19:04:14.759Z,29.01
2022-10-25T19:06:46.128Z,29.02
2022-10-25T19:09:17.734Z,28.98
2022-10-25T19:11:48.574Z,28.99
2022-10-25T19:14:19.471Z,28.99
2022-10-25T19:16:50.413Z,28.98
2022-10-25T19:19:22.085Z,28.94
2022-10-25T19:21:53.200Z,28.76
2022-10-25T19:24:24.310Z,28.95
2022-10-25T19:26:55.194Z,28.91
2022-10-25T19:29:26.062Z,28.94
2022-10-25T19:31:59.072Z,28.94
2022-10-25T19:34:29.975Z,28.81
2022-10-25T19:37:06.134Z,28.90
2022-10-25T19:39:39.240Z,28.90
2022-10-25T19:42:12.893Z,28.89
2022-10-25T19:44:44.079Z,28.77
2022-10-25T19:47:15.129Z,28.85
2022-10-25T19:49:46.190Z,28.80
2022-10-25T19:52:17.126Z,28.86
2022-10-25T19:54:48.222Z,28.76
2022-10-25T19:57:19.635Z,28.81
2022-10-25T19:59:50.675Z,28.81
2022-10-25T20:02:21.745Z,28.82
2022-10-25T20:04:52.853Z,28.76
2022-10-25T20:07:23.711Z,28.79
2022-10-25T20:09:54.524Z,28.78
2022-10-25T20:12:25.543Z,28.77
2022-10-25T20:14:56.384Z,28.76
2022-10-25T20:17:27.853Z,28.75
2022-10-25T20:19:58.704Z,28.75
2022-10-25T20:22:29.551Z,28.73
2022-10-25T20:25:00.502Z,28.73
2022-10-25T20:27:33.055Z,28.56
2022-10-25T20:30:04.034Z,28.73
2022-10-25T20:32:35.780Z,28.71
2022-10-25T20:35:06.918Z,28.68
2022-10-25T20:37:37.778Z,28.69
2022-10-25T20:40:09.288Z,28.62
2022-10-25T20:42:40.568Z,28.66
2022-10-25T20:45:11.563Z,28.69
2022-10-25T20:47:42.387Z,28.69
2022-10-25T20:50:13.235Z,28.68
2022-10-25T20:52:52.796Z,28.68
2022-10-25T20:55:35.876Z,28.64
2022-10-25T20:58:07.957Z,28.50
2022-10-25T21:00:38.329Z,28.27
2022-10-25T21:03:09.300Z,28.59
2022-10-25T21:05:44.490Z,28.60
2022-10-25T21:08:16.160Z,28.62
2022-10-25T21:10:53.530Z,28.57
2022-10-25T21:13:25.813Z,28.54
2022-10-25T21:15:56.844Z,28.52
2022-10-25T21:18:30.817Z,28.47
2022-10-25T21:21:06.619Z,28.56
2022-10-25T21:23:37.818Z,28.54
2022-10-25T21:26:09.892Z,28.13
2022-10-25T21:28:41.525Z,28.13
2022-10-25T21:31:14.473Z,28.48
2022-10-25T21:33:50.487Z,28.48
2022-10-25T21:36:23.081Z,28.51
2022-10-25T21:38:55.502Z,28.48
2022-10-25T21:41:28.260Z,28.47
2022-10-25T21:43:59.974Z,28.50
2022-10-25T21:46:31.880Z,28.45
2022-10-25T21:49:02.975Z,28.47
2022-10-25T21:51:33.830Z,28.47
2022-10-25T21:54:05.711Z,28.27
2022-10-25T21:56:36.531Z,28.37
2022-10-25T21:59:07.569Z,28.47
2022-10-25T22:01:39.919Z,28.47
2022-10-25T22:04:11.035Z,28.46
2022-10-25T22:06:42.763Z,28.42
2022-10-25T22:09:13.783Z,28.40
2022-10-25T22:11:45.009Z,28.43
2022-10-25T22:14:16.463Z,28.40
2022-10-25T22:16:47.213Z,28.31
2022-10-25T22:19:20.704Z,27.75
2022-10-25T22:21:52.958Z,28.41
2022-10-25T22:24:23.877Z,28.39
2022-10-25T22:26:54.727Z,28.39
2022-10-25T22:29:25.628Z,28.41
2022-10-25T22:31:56.392Z,28.41
2022-10-25T22:34:27.278Z,28.40
2022-10-25T22:36:58.207Z,28.40
2022-10-25T22:39:29.098Z,28.38
2022-10-25T22:41:59.903Z,28.20
2022-10-25T22:44:30.750Z,28.39
2022-10-25T22:47:01.606Z,28.38
2022-10-25T22:49:33.210Z,28.37
2022-10-25T22:52:04.264Z,28.37
2022-10-25T22:54:35.149Z,28.36
2022-10-25T22:57:06.034Z,28.38
2022-10-25T22:59:36.871Z,28.29
2022-10-25T23:02:07.924Z,28.16
2022-10-25T23:04:38.940Z,28.19
2022-10-25T23:07:09.840Z,28.22
2022-10-25T23:09:40.887Z,28.27
2022-10-25T23:12:12.173Z,28.37
2022-10-25T23:14:43.960Z,28.38
2022-10-25T23:17:15.096Z,28.42
2022-10-25T23:19:46.491Z,28.50
2022-10-25T23:22:17.482Z,28.59
2022-10-25T23:24:49.944Z,28.59
2022-10-25T23:27:22.240Z,28.72
2022-10-25T23:29:53.089Z,28.77
2022-10-25T23:32:24.018Z,28.84
2022-10-25T23:34:57.006Z,28.85
2022-10-25T23:37:28.121Z,29.02
2022-10-25T23:39:59.189Z,29.04
2022-10-25T23:42:30.313Z,29.06
2022-10-25T23:45:04.668Z,29.12
2022-10-25T23:47:36.439Z,29.15
2022-10-25T23:50:07.995Z,29.08
2022-10-25T23:52:38.944Z,29.22
2022-10-25T23:55:10.757Z,29.24
2022-10-25T23:57:41.779Z,29.21
